sensor_id;sensor_type;location;lat;lon;timestamp;P1;durP1;ratioP1;P2;durP2;ratioP2
11817;SDS011;5966;52.402;5.322;2023-11-19T00:01:18;14.67;;;3.63;;
11817;SDS011;5966;52.402;5.322;2023-11-19T00:03:47;12.80;;;3.37;;
11817;SDS011;5966;52.402;5.322;2023-11-19T00:06:18;17.03;;;3.50;;
11817;SDS011;5966;52.402;5.322;2023-11-19T00:08:46;11.30;;;3.03;;
11817;SDS011;5966;52.402;5.322;2023-11-19T00:11:14;14.93;;;3.77;;
11817;SDS011;5966;52.402;5.322;2023-11-19T00:13:42;11.50;;;3.10;;
11817;SDS011;5966;52.402;5.322;2023-11-19T00:16:11;9.43;;;3.07;;
11817;SDS011;5966;52.402;5.322;2023-11-19T00:18:39;11.20;;;3.00;;
11817;SDS011;5966;52.402;5.322;2023-11-19T00:21:07;14.87;;;3.10;;
11817;SDS011;5966;52.402;5.322;2023-11-19T00:23:37;15.93;;;3.77;;
11817;SDS011;5966;52.402;5.322;2023-11-19T00:26:06;17.13;;;4.43;;
11817;SDS011;5966;52.402;5.322;2023-11-19T00:28:34;16.80;;;3.33;;
11817;SDS011;5966;52.402;5.322;2023-11-19T00:31:05;9.83;;;2.73;;
11817;SDS011;5966;52.402;5.322;2023-11-19T00:33:33;16.87;;;3.83;;
11817;SDS011;5966;52.402;5.322;2023-11-19T00:36:00;15.87;;;4.10;;
11817;SDS011;5966;52.402;5.322;2023-11-19T00:38:29;13.27;;;3.37;;
11817;SDS011;5966;52.402;5.322;2023-11-19T00:40:58;14.97;;;3.40;;
11817;SDS011;5966;52.402;5.322;2023-11-19T00:43:29;12.77;;;3.23;;
11817;SDS011;5966;52.402;5.322;2023-11-19T00:45:57;16.83;;;3.23;;
11817;SDS011;5966;52.402;5.322;2023-11-19T00:48:25;14.10;;;3.40;;
11817;SDS011;5966;52.402;5.322;2023-11-19T00:50:54;12.20;;;3.20;;
11817;SDS011;5966;52.402;5.322;2023-11-19T00:53:22;14.00;;;3.30;;
11817;SDS011;5966;52.402;5.322;2023-11-19T00:55:50;20.43;;;3.87;;
11817;SDS011;5966;52.402;5.322;2023-11-19T00:58:20;16.30;;;3.93;;
11817;SDS011;5966;52.402;5.322;2023-11-19T01:00:48;14.37;;;3.40;;
11817;SDS011;5966;52.402;5.322;2023-11-19T01:03:16;15.23;;;2.90;;
11817;SDS011;5966;52.402;5.322;2023-11-19T01:05:45;20.87;;;3.43;;
11817;SDS011;5966;52.402;5.322;2023-11-19T01:08:14;16.17;;;3.67;;
11817;SDS011;5966;52.402;5.322;2023-11-19T01:10:43;16.10;;;3.93;;
11817;SDS011;5966;52.402;5.322;2023-11-19T01:13:14;13.10;;;3.90;;
11817;SDS011;5966;52.402;5.322;2023-11-19T01:15:44;17.57;;;4.33;;
11817;SDS011;5966;52.402;5.322;2023-11-19T01:18:13;18.53;;;4.40;;
11817;SDS011;5966;52.402;5.322;2023-11-19T01:20:41;13.50;;;3.60;;
11817;SDS011;5966;52.402;5.322;2023-11-19T01:23:09;19.03;;;4.07;;
11817;SDS011;5966;52.402;5.322;2023-11-19T01:25:37;16.87;;;4.40;;
11817;SDS011;5966;52.402;5.322;2023-11-19T01:28:05;17.63;;;4.67;;
11817;SDS011;5966;52.402;5.322;2023-11-19T01:30:33;18.63;;;3.93;;
11817;SDS011;5966;52.402;5.322;2023-11-19T01:33:03;19.73;;;3.83;;
11817;SDS011;5966;52.402;5.322;2023-11-19T01:35:33;14.93;;;3.93;;
11817;SDS011;5966;52.402;5.322;2023-11-19T01:38:01;20.00;;;4.17;;
11817;SDS011;5966;52.402;5.322;2023-11-19T01:40:30;18.27;;;3.90;;
11817;SDS011;5966;52.402;5.322;2023-11-19T01:42:58;19.70;;;4.30;;
11817;SDS011;5966;52.402;5.322;2023-11-19T01:45:27;19.50;;;4.00;;
11817;SDS011;5966;52.402;5.322;2023-11-19T01:47:57;20.43;;;4.37;;
11817;SDS011;5966;52.402;5.322;2023-11-19T01:50:29;20.70;;;4.20;;
11817;SDS011;5966;52.402;5.322;2023-11-19T01:52:59;16.93;;;4.23;;
11817;SDS011;5966;52.402;5.322;2023-11-19T01:55:27;20.77;;;4.53;;
11817;SDS011;5966;52.402;5.322;2023-11-19T01:57:57;23.00;;;4.83;;
11817;SDS011;5966;52.402;5.322;2023-11-19T02:00:28;18.57;;;4.83;;
11817;SDS011;5966;52.402;5.322;2023-11-19T02:02:56;18.73;;;4.40;;
11817;SDS011;5966;52.402;5.322;2023-11-19T02:05:24;22.70;;;5.67;;
11817;SDS011;5966;52.402;5.322;2023-11-19T02:07:54;23.03;;;5.10;;
11817;SDS011;5966;52.402;5.322;2023-11-19T02:10:22;22.80;;;4.67;;
11817;SDS011;5966;52.402;5.322;2023-11-19T02:12:51;20.60;;;4.53;;
11817;SDS011;5966;52.402;5.322;2023-11-19T02:15:30;20.60;;;4.87;;
11817;SDS011;5966;52.402;5.322;2023-11-19T02:20:44;26.40;;;5.43;;
11817;SDS011;5966;52.402;5.322;2023-11-19T02:23:17;19.73;;;5.77;;
11817;SDS011;5966;52.402;5.322;2023-11-19T02:25:47;20.43;;;4.57;;
11817;SDS011;5966;52.402;5.322;2023-11-19T02:28:23;22.50;;;4.80;;
11817;SDS011;5966;52.402;5.322;2023-11-19T02:30:51;22.80;;;5.07;;
11817;SDS011;5966;52.402;5.322;2023-11-19T02:33:20;22.97;;;4.63;;
11817;SDS011;5966;52.402;5.322;2023-11-19T02:35:49;23.80;;;4.50;;
11817;SDS011;5966;52.402;5.322;2023-11-19T02:38:17;22.07;;;4.67;;
11817;SDS011;5966;52.402;5.322;2023-11-19T02:40:45;20.23;;;4.97;;
11817;SDS011;5966;52.402;5.322;2023-11-19T02:43:13;21.77;;;4.67;;
11817;SDS011;5966;52.402;5.322;2023-11-19T02:45:43;23.03;;;5.40;;
11817;SDS011;5966;52.402;5.322;2023-11-19T02:48:12;21.77;;;5.13;;
11817;SDS011;5966;52.402;5.322;2023-11-19T02:50:40;28.00;;;5.03;;
11817;SDS011;5966;52.402;5.322;2023-11-19T02:53:09;19.70;;;4.60;;
11817;SDS011;5966;52.402;5.322;2023-11-19T02:55:37;24.40;;;5.30;;
11817;SDS011;5966;52.402;5.322;2023-11-19T02:58:07;20.43;;;5.17;;
11817;SDS011;5966;52.402;5.322;2023-11-19T03:00:47;19.73;;;4.83;;
11817;SDS011;5966;52.402;5.322;2023-11-19T03:03:21;20.57;;;4.90;;
11817;SDS011;5966;52.402;5.322;2023-11-19T03:05:55;20.23;;;4.37;;
11817;SDS011;5966;52.402;5.322;2023-11-19T03:08:23;23.53;;;5.20;;
11817;SDS011;5966;52.402;5.322;2023-11-19T03:10:51;23.53;;;5.37;;
11817;SDS011;5966;52.402;5.322;2023-11-19T03:13:19;24.43;;;5.33;;
11817;SDS011;5966;52.402;5.322;2023-11-19T03:15:50;22.17;;;4.67;;
11817;SDS011;5966;52.402;5.322;2023-11-19T03:18:20;18.97;;;4.90;;
11817;SDS011;5966;52.402;5.322;2023-11-19T03:20:48;25.93;;;5.37;;
11817;SDS011;5966;52.402;5.322;2023-11-19T03:23:17;23.73;;;5.33;;
11817;SDS011;5966;52.402;5.322;2023-11-19T03:25:45;24.73;;;4.87;;
11817;SDS011;5966;52.402;5.322;2023-11-19T03:28:13;25.20;;;5.87;;
11817;SDS011;5966;52.402;5.322;2023-11-19T03:30:41;30.10;;;5.33;;
11817;SDS011;5966;52.402;5.322;2023-11-19T03:33:11;18.53;;;4.83;;
11817;SDS011;5966;52.402;5.322;2023-11-19T03:35:39;23.00;;;4.97;;
11817;SDS011;5966;52.402;5.322;2023-11-19T03:38:08;27.47;;;6.17;;
11817;SDS011;5966;52.402;5.322;2023-11-19T03:40:36;21.47;;;4.43;;
11817;SDS011;5966;52.402;5.322;2023-11-19T03:43:05;18.17;;;4.73;;
11817;SDS011;5966;52.402;5.322;2023-11-19T03:45:33;25.00;;;5.27;;
11817;SDS011;5966;52.402;5.322;2023-11-19T03:48:02;19.20;;;4.50;;
11817;SDS011;5966;52.402;5.322;2023-11-19T03:50:32;21.20;;;5.13;;
11817;SDS011;5966;52.402;5.322;2023-11-19T03:53:01;24.53;;;5.33;;
11817;SDS011;5966;52.402;5.322;2023-11-19T03:55:32;20.23;;;5.77;;
11817;SDS011;5966;52.402;5.322;2023-11-19T03:58:00;26.93;;;5.60;;
11817;SDS011;5966;52.402;5.322;2023-11-19T04:00:27;19.43;;;4.97;;
11817;SDS011;5966;52.402;5.322;2023-11-19T04:02:55;23.20;;;5.63;;
11817;SDS011;5966;52.402;5.322;2023-11-19T04:05:24;22.43;;;5.30;;
11817;SDS011;5966;52.402;5.322;2023-11-19T04:07:54;31.63;;;5.47;;
11817;SDS011;5966;52.402;5.322;2023-11-19T04:10:22;18.63;;;4.60;;
11817;SDS011;5966;52.402;5.322;2023-11-19T04:12:50;28.97;;;5.53;;
11817;SDS011;5966;52.402;5.322;2023-11-19T04:15:18;23.70;;;5.20;;
11817;SDS011;5966;52.402;5.322;2023-11-19T04:17:46;24.80;;;5.43;;
11817;SDS011;5966;52.402;5.322;2023-11-19T04:20:15;26.03;;;5.67;;
11817;SDS011;5966;52.402;5.322;2023-11-19T04:22:43;27.13;;;6.33;;
11817;SDS011;5966;52.402;5.322;2023-11-19T04:25:12;22.97;;;4.80;;
11817;SDS011;5966;52.402;5.322;2023-11-19T04:27:41;23.27;;;5.13;;
11817;SDS011;5966;52.402;5.322;2023-11-19T04:30:10;21.70;;;5.43;;
11817;SDS011;5966;52.402;5.322;2023-11-19T04:32:38;28.00;;;5.07;;
11817;SDS011;5966;52.402;5.322;2023-11-19T04:35:07;27.37;;;6.23;;
11817;SDS011;5966;52.402;5.322;2023-11-19T04:37:36;26.63;;;5.70;;
11817;SDS011;5966;52.402;5.322;2023-11-19T04:40:05;23.33;;;5.27;;
11817;SDS011;5966;52.402;5.322;2023-11-19T04:42:35;22.87;;;4.90;;
11817;SDS011;5966;52.402;5.322;2023-11-19T04:45:04;29.17;;;5.67;;
11817;SDS011;5966;52.402;5.322;2023-11-19T04:47:33;26.70;;;5.63;;
11817;SDS011;5966;52.402;5.322;2023-11-19T04:50:02;26.47;;;5.70;;
11817;SDS011;5966;52.402;5.322;2023-11-19T04:52:30;24.27;;;5.63;;
11817;SDS011;5966;52.402;5.322;2023-11-19T04:54:58;28.53;;;5.87;;
11817;SDS011;5966;52.402;5.322;2023-11-19T04:57:26;27.13;;;5.73;;
11817;SDS011;5966;52.402;5.322;2023-11-19T04:59:56;22.60;;;5.43;;
11817;SDS011;5966;52.402;5.322;2023-11-19T05:02:23;25.33;;;5.13;;
11817;SDS011;5966;52.402;5.322;2023-11-19T05:04:52;27.23;;;5.13;;
11817;SDS011;5966;52.402;5.322;2023-11-19T05:07:20;26.20;;;5.23;;
11817;SDS011;5966;52.402;5.322;2023-11-19T05:09:48;27.87;;;5.50;;
11817;SDS011;5966;52.402;5.322;2023-11-19T05:12:16;22.97;;;5.37;;
11817;SDS011;5966;52.402;5.322;2023-11-19T05:14:45;32.17;;;6.50;;
11817;SDS011;5966;52.402;5.322;2023-11-19T05:17:18;26.23;;;4.83;;
11817;SDS011;5966;52.402;5.322;2023-11-19T05:19:46;24.53;;;5.77;;
11817;SDS011;5966;52.402;5.322;2023-11-19T05:22:15;27.67;;;5.70;;
11817;SDS011;5966;52.402;5.322;2023-11-19T05:24:43;28.93;;;5.40;;
11817;SDS011;5966;52.402;5.322;2023-11-19T05:27:11;24.80;;;5.50;;
11817;SDS011;5966;52.402;5.322;2023-11-19T05:29:40;26.80;;;5.63;;
11817;SDS011;5966;52.402;5.322;2023-11-19T05:32:09;27.57;;;5.80;;
11817;SDS011;5966;52.402;5.322;2023-11-19T05:34:39;26.60;;;4.77;;
11817;SDS011;5966;52.402;5.322;2023-11-19T05:37:10;26.23;;;6.37;;
11817;SDS011;5966;52.402;5.322;2023-11-19T05:39:39;29.20;;;6.37;;
11817;SDS011;5966;52.402;5.322;2023-11-19T05:42:07;27.73;;;5.63;;
11817;SDS011;5966;52.402;5.322;2023-11-19T05:44:36;21.73;;;5.37;;
11817;SDS011;5966;52.402;5.322;2023-11-19T05:47:07;22.67;;;5.13;;
11817;SDS011;5966;52.402;5.322;2023-11-19T05:49:35;27.03;;;4.90;;
11817;SDS011;5966;52.402;5.322;2023-11-19T05:52:04;25.13;;;5.30;;
11817;SDS011;5966;52.402;5.322;2023-11-19T05:54:36;29.83;;;6.03;;
11817;SDS011;5966;52.402;5.322;2023-11-19T05:57:04;29.37;;;6.17;;
11817;SDS011;5966;52.402;5.322;2023-11-19T05:59:36;27.03;;;5.37;;
11817;SDS011;5966;52.402;5.322;2023-11-19T06:02:04;20.70;;;4.90;;
11817;SDS011;5966;52.402;5.322;2023-11-19T06:04:33;20.03;;;4.57;;
11817;SDS011;5966;52.402;5.322;2023-11-19T06:07:01;24.80;;;5.53;;
11817;SDS011;5966;52.402;5.322;2023-11-19T06:09:30;27.40;;;5.53;;
11817;SDS011;5966;52.402;5.322;2023-11-19T06:12:00;20.90;;;5.10;;
11817;SDS011;5966;52.402;5.322;2023-11-19T06:14:28;31.13;;;6.30;;
11817;SDS011;5966;52.402;5.322;2023-11-19T06:16:56;27.70;;;5.20;;
11817;SDS011;5966;52.402;5.322;2023-11-19T06:19:24;28.50;;;6.27;;
11817;SDS011;5966;52.402;5.322;2023-11-19T06:21:56;26.47;;;5.13;;
11817;SDS011;5966;52.402;5.322;2023-11-19T06:24:24;23.37;;;4.87;;
11817;SDS011;5966;52.402;5.322;2023-11-19T06:26:54;23.13;;;4.83;;
11817;SDS011;5966;52.402;5.322;2023-11-19T06:29:22;32.33;;;6.13;;
11817;SDS011;5966;52.402;5.322;2023-11-19T06:31:51;27.50;;;5.53;;
11817;SDS011;5966;52.402;5.322;2023-11-19T06:34:19;27.43;;;6.43;;
11817;SDS011;5966;52.402;5.322;2023-11-19T06:36:47;25.30;;;4.97;;
11817;SDS011;5966;52.402;5.322;2023-11-19T06:39:16;30.77;;;5.50;;
11817;SDS011;5966;52.402;5.322;2023-11-19T06:41:44;26.53;;;4.80;;
11817;SDS011;5966;52.402;5.322;2023-11-19T06:44:15;23.87;;;5.03;;
11817;SDS011;5966;52.402;5.322;2023-11-19T06:46:43;27.27;;;5.17;;
11817;SDS011;5966;52.402;5.322;2023-11-19T06:49:11;24.87;;;5.10;;
11817;SDS011;5966;52.402;5.322;2023-11-19T06:51:41;26.03;;;5.17;;
11817;SDS011;5966;52.402;5.322;2023-11-19T06:54:10;26.73;;;5.67;;
11817;SDS011;5966;52.402;5.322;2023-11-19T06:56:38;24.20;;;4.93;;
11817;SDS011;5966;52.402;5.322;2023-11-19T06:59:08;24.40;;;5.30;;
11817;SDS011;5966;52.402;5.322;2023-11-19T07:01:38;29.23;;;5.30;;
11817;SDS011;5966;52.402;5.322;2023-11-19T07:04:10;25.27;;;4.63;;
11817;SDS011;5966;52.402;5.322;2023-11-19T07:06:38;25.60;;;5.10;;
11817;SDS011;5966;52.402;5.322;2023-11-19T07:09:08;21.40;;;4.93;;
11817;SDS011;5966;52.402;5.322;2023-11-19T07:11:37;25.27;;;4.97;;
11817;SDS011;5966;52.402;5.322;2023-11-19T07:14:06;25.30;;;5.27;;
11817;SDS011;5966;52.402;5.322;2023-11-19T07:16:34;20.93;;;5.20;;
11817;SDS011;5966;52.402;5.322;2023-11-19T07:19:06;22.33;;;4.83;;
11817;SDS011;5966;52.402;5.322;2023-11-19T07:21:35;23.93;;;4.90;;
11817;SDS011;5966;52.402;5.322;2023-11-19T07:24:06;27.73;;;5.10;;
11817;SDS011;5966;52.402;5.322;2023-11-19T07:26:34;20.50;;;4.90;;
11817;SDS011;5966;52.402;5.322;2023-11-19T07:29:03;20.27;;;4.60;;
11817;SDS011;5966;52.402;5.322;2023-11-19T07:31:34;27.40;;;4.97;;
11817;SDS011;5966;52.402;5.322;2023-11-19T07:34:02;22.50;;;4.73;;
11817;SDS011;5966;52.402;5.322;2023-11-19T07:36:33;20.50;;;4.27;;
11817;SDS011;5966;52.402;5.322;2023-11-19T07:39:02;30.23;;;4.90;;
11817;SDS011;5966;52.402;5.322;2023-11-19T07:41:31;25.30;;;5.03;;
11817;SDS011;5966;52.402;5.322;2023-11-19T07:44:00;29.17;;;5.60;;
11817;SDS011;5966;52.402;5.322;2023-11-19T07:46:28;21.57;;;4.57;;
11817;SDS011;5966;52.402;5.322;2023-11-19T07:48:58;25.20;;;5.23;;
11817;SDS011;5966;52.402;5.322;2023-11-19T07:51:26;27.83;;;5.00;;
11817;SDS011;5966;52.402;5.322;2023-11-19T07:53:55;22.60;;;4.43;;
11817;SDS011;5966;52.402;5.322;2023-11-19T07:56:23;23.97;;;4.90;;
11817;SDS011;5966;52.402;5.322;2023-11-19T07:58:52;20.43;;;4.20;;
11817;SDS011;5966;52.402;5.322;2023-11-19T08:01:20;23.00;;;5.63;;
11817;SDS011;5966;52.402;5.322;2023-11-19T08:03:49;19.93;;;4.10;;
11817;SDS011;5966;52.402;5.322;2023-11-19T08:06:20;25.50;;;5.17;;
11817;SDS011;5966;52.402;5.322;2023-11-19T08:08:49;24.40;;;5.30;;
11817;SDS011;5966;52.402;5.322;2023-11-19T08:11:20;18.47;;;4.73;;
11817;SDS011;5966;52.402;5.322;2023-11-19T08:13:48;21.70;;;5.33;;
11817;SDS011;5966;52.402;5.322;2023-11-19T08:16:16;23.90;;;5.17;;
11817;SDS011;5966;52.402;5.322;2023-11-19T08:18:44;25.33;;;4.90;;
11817;SDS011;5966;52.402;5.322;2023-11-19T08:21:12;21.40;;;4.80;;
11817;SDS011;5966;52.402;5.322;2023-11-19T08:23:41;26.67;;;6.43;;
11817;SDS011;5966;52.402;5.322;2023-11-19T08:26:09;18.07;;;4.60;;
11817;SDS011;5966;52.402;5.322;2023-11-19T08:28:39;26.27;;;5.73;;
11817;SDS011;5966;52.402;5.322;2023-11-19T08:31:07;26.00;;;5.00;;
11817;SDS011;5966;52.402;5.322;2023-11-19T08:33:35;16.77;;;4.33;;
11817;SDS011;5966;52.402;5.322;2023-11-19T08:36:03;31.70;;;5.33;;
11817;SDS011;5966;52.402;5.322;2023-11-19T08:38:33;22.70;;;4.50;;
11817;SDS011;5966;52.402;5.322;2023-11-19T08:41:01;22.40;;;4.93;;
11817;SDS011;5966;52.402;5.322;2023-11-19T08:43:29;28.53;;;6.00;;
11817;SDS011;5966;52.402;5.322;2023-11-19T08:45:59;23.17;;;4.50;;
11817;SDS011;5966;52.402;5.322;2023-11-19T08:48:27;17.73;;;4.77;;
11817;SDS011;5966;52.402;5.322;2023-11-19T08:50:55;25.67;;;4.93;;
11817;SDS011;5966;52.402;5.322;2023-11-19T08:53:24;18.47;;;4.07;;
11817;SDS011;5966;52.402;5.322;2023-11-19T08:55:53;24.80;;;4.53;;
11817;SDS011;5966;52.402;5.322;2023-11-19T08:58:21;25.73;;;5.50;;
11817;SDS011;5966;52.402;5.322;2023-11-19T09:00:50;29.13;;;5.50;;
11817;SDS011;5966;52.402;5.322;2023-11-19T09:03:19;24.97;;;4.43;;
11817;SDS011;5966;52.402;5.322;2023-11-19T09:05:48;22.77;;;5.30;;
11817;SDS011;5966;52.402;5.322;2023-11-19T09:08:16;24.03;;;4.77;;
11817;SDS011;5966;52.402;5.322;2023-11-19T09:10:44;19.50;;;4.47;;
11817;SDS011;5966;52.402;5.322;2023-11-19T09:13:12;21.10;;;4.47;;
11817;SDS011;5966;52.402;5.322;2023-11-19T09:15:39;17.50;;;4.77;;
11817;SDS011;5966;52.402;5.322;2023-11-19T09:18:08;21.50;;;5.70;;
11817;SDS011;5966;52.402;5.322;2023-11-19T09:20:38;24.13;;;4.90;;
11817;SDS011;5966;52.402;5.322;2023-11-19T09:23:06;24.03;;;4.93;;
11817;SDS011;5966;52.402;5.322;2023-11-19T09:25:35;21.50;;;4.53;;
11817;SDS011;5966;52.402;5.322;2023-11-19T09:28:06;23.53;;;4.90;;
11817;SDS011;5966;52.402;5.322;2023-11-19T09:30:35;31.53;;;4.80;;
11817;SDS011;5966;52.402;5.322;2023-11-19T09:33:03;20.73;;;5.27;;
11817;SDS011;5966;52.402;5.322;2023-11-19T09:35:32;20.90;;;4.37;;
11817;SDS011;5966;52.402;5.322;2023-11-19T09:38:01;24.73;;;5.30;;
11817;SDS011;5966;52.402;5.322;2023-11-19T09:40:31;21.93;;;4.57;;
11817;SDS011;5966;52.402;5.322;2023-11-19T09:43:00;24.03;;;5.00;;
11817;SDS011;5966;52.402;5.322;2023-11-19T09:45:28;22.33;;;4.70;;
11817;SDS011;5966;52.402;5.322;2023-11-19T09:48:00;24.73;;;5.13;;
11817;SDS011;5966;52.402;5.322;2023-11-19T09:50:30;24.70;;;5.00;;
11817;SDS011;5966;52.402;5.322;2023-11-19T09:52:59;23.77;;;5.37;;
11817;SDS011;5966;52.402;5.322;2023-11-19T09:55:28;22.13;;;4.90;;
11817;SDS011;5966;52.402;5.322;2023-11-19T09:57:56;19.97;;;4.57;;
11817;SDS011;5966;52.402;5.322;2023-11-19T10:00:27;22.80;;;4.53;;
11817;SDS011;5966;52.402;5.322;2023-11-19T10:02:58;22.27;;;5.23;;
11817;SDS011;5966;52.402;5.322;2023-11-19T10:05:27;30.83;;;5.17;;
11817;SDS011;5966;52.402;5.322;2023-11-19T10:07:56;23.70;;;4.80;;
11817;SDS011;5966;52.402;5.322;2023-11-19T10:10:24;23.33;;;5.80;;
11817;SDS011;5966;52.402;5.322;2023-11-19T10:12:54;19.97;;;4.93;;
11817;SDS011;5966;52.402;5.322;2023-11-19T10:15:23;28.00;;;4.77;;
11817;SDS011;5966;52.402;5.322;2023-11-19T10:17:54;27.50;;;5.70;;
11817;SDS011;5966;52.402;5.322;2023-11-19T10:20:23;23.20;;;5.53;;
11817;SDS011;5966;52.402;5.322;2023-11-19T10:22:52;25.37;;;4.93;;
11817;SDS011;5966;52.402;5.322;2023-11-19T10:25:21;30.47;;;6.03;;
11817;SDS011;5966;52.402;5.322;2023-11-19T10:27:51;23.17;;;5.50;;
11817;SDS011;5966;52.402;5.322;2023-11-19T10:30:22;25.80;;;5.23;;
11817;SDS011;5966;52.402;5.322;2023-11-19T10:33:05;24.63;;;4.60;;
11817;SDS011;5966;52.402;5.322;2023-11-19T10:35:36;24.90;;;5.57;;
11817;SDS011;5966;52.402;5.322;2023-11-19T10:38:22;26.20;;;5.23;;
11817;SDS011;5966;52.402;5.322;2023-11-19T10:40:52;20.57;;;5.27;;
11817;SDS011;5966;52.402;5.322;2023-11-19T10:43:21;22.33;;;4.63;;
11817;SDS011;5966;52.402;5.322;2023-11-19T10:45:52;23.80;;;4.30;;
11817;SDS011;5966;52.402;5.322;2023-11-19T10:48:20;22.33;;;6.17;;
11817;SDS011;5966;52.402;5.322;2023-11-19T10:50:53;20.67;;;4.60;;
11817;SDS011;5966;52.402;5.322;2023-11-19T10:53:22;21.10;;;4.77;;
11817;SDS011;5966;52.402;5.322;2023-11-19T10:55:52;23.10;;;4.80;;
11817;SDS011;5966;52.402;5.322;2023-11-19T10:58:26;26.27;;;5.20;;
11817;SDS011;5966;52.402;5.322;2023-11-19T11:01:01;16.87;;;4.40;;
11817;SDS011;5966;52.402;5.322;2023-11-19T11:03:32;21.63;;;4.80;;
11817;SDS011;5966;52.402;5.322;2023-11-19T11:06:07;14.87;;;3.60;;
11817;SDS011;5966;52.402;5.322;2023-11-19T11:08:36;17.33;;;4.37;;
11817;SDS011;5966;52.402;5.322;2023-11-19T11:11:06;15.93;;;4.37;;
11817;SDS011;5966;52.402;5.322;2023-11-19T11:13:36;23.13;;;4.30;;
11817;SDS011;5966;52.402;5.322;2023-11-19T11:16:17;19.80;;;4.50;;
11817;SDS011;5966;52.402;5.322;2023-11-19T11:18:48;22.53;;;5.03;;
11817;SDS011;5966;52.402;5.322;2023-11-19T11:21:20;21.93;;;3.93;;
11817;SDS011;5966;52.402;5.322;2023-11-19T11:24:01;21.20;;;4.63;;
11817;SDS011;5966;52.402;5.322;2023-11-19T11:26:52;18.63;;;4.33;;
11817;SDS011;5966;52.402;5.322;2023-11-19T11:29:31;17.53;;;4.13;;
11817;SDS011;5966;52.402;5.322;2023-11-19T11:32:15;20.43;;;4.20;;
11817;SDS011;5966;52.402;5.322;2023-11-19T11:34:55;18.03;;;4.03;;
11817;SDS011;5966;52.402;5.322;2023-11-19T11:37:42;22.50;;;4.70;;
11817;SDS011;5966;52.402;5.322;2023-11-19T11:40:14;20.63;;;4.13;;
11817;SDS011;5966;52.402;5.322;2023-11-19T11:42:44;23.97;;;4.60;;
11817;SDS011;5966;52.402;5.322;2023-11-19T11:45:13;23.87;;;4.57;;
11817;SDS011;5966;52.402;5.322;2023-11-19T11:50:51;20.67;;;4.00;;
11817;SDS011;5966;52.402;5.322;2023-11-19T11:53:23;18.93;;;4.37;;
11817;SDS011;5966;52.402;5.322;2023-11-19T11:55:58;20.07;;;4.53;;
11817;SDS011;5966;52.402;5.322;2023-11-19T11:58:30;19.97;;;4.33;;
11817;SDS011;5966;52.402;5.322;2023-11-19T12:01:01;18.20;;;4.03;;
11817;SDS011;5966;52.402;5.322;2023-11-19T12:03:37;22.47;;;5.23;;
11817;SDS011;5966;52.402;5.322;2023-11-19T12:06:06;19.27;;;4.20;;
11817;SDS011;5966;52.402;5.322;2023-11-19T12:08:35;20.60;;;4.30;;
11817;SDS011;5966;52.402;5.322;2023-11-19T12:11:24;13.07;;;3.83;;
11817;SDS011;5966;52.402;5.322;2023-11-19T12:13:54;23.00;;;4.50;;
11817;SDS011;5966;52.402;5.322;2023-11-19T12:16:26;16.30;;;3.63;;
11817;SDS011;5966;52.402;5.322;2023-11-19T12:19:04;20.67;;;3.93;;
11817;SDS011;5966;52.402;5.322;2023-11-19T12:21:33;17.73;;;3.77;;
11817;SDS011;5966;52.402;5.322;2023-11-19T12:24:04;18.93;;;4.53;;
11817;SDS011;5966;52.402;5.322;2023-11-19T12:26:37;29.47;;;5.00;;
11817;SDS011;5966;52.402;5.322;2023-11-19T12:29:06;20.87;;;4.23;;
11817;SDS011;5966;52.402;5.322;2023-11-19T12:31:36;17.63;;;3.80;;
11817;SDS011;5966;52.402;5.322;2023-11-19T12:34:11;19.40;;;4.10;;
11817;SDS011;5966;52.402;5.322;2023-11-19T12:36:41;16.33;;;4.07;;
11817;SDS011;5966;52.402;5.322;2023-11-19T12:39:15;15.20;;;3.87;;
11817;SDS011;5966;52.402;5.322;2023-11-19T12:41:53;17.43;;;3.57;;
11817;SDS011;5966;52.402;5.322;2023-11-19T12:44:21;16.07;;;4.03;;
11817;SDS011;5966;52.402;5.322;2023-11-19T12:47:04;19.90;;;4.77;;
11817;SDS011;5966;52.402;5.322;2023-11-19T12:49:39;18.93;;;3.90;;
11817;SDS011;5966;52.402;5.322;2023-11-19T12:52:11;15.30;;;3.83;;
11817;SDS011;5966;52.402;5.322;2023-11-19T12:54:45;15.80;;;4.00;;
11817;SDS011;5966;52.402;5.322;2023-11-19T12:57:16;15.57;;;3.87;;
11817;SDS011;5966;52.402;5.322;2023-11-19T12:59:55;16.70;;;4.03;;
11817;SDS011;5966;52.402;5.322;2023-11-19T13:05:31;19.73;;;4.10;;
11817;SDS011;5966;52.402;5.322;2023-11-19T13:08:06;18.60;;;4.20;;
11817;SDS011;5966;52.402;5.322;2023-11-19T13:10:51;15.67;;;3.87;;
11817;SDS011;5966;52.402;5.322;2023-11-19T13:13:26;17.80;;;3.57;;
11817;SDS011;5966;52.402;5.322;2023-11-19T13:16:07;22.00;;;3.90;;
11817;SDS011;5966;52.402;5.322;2023-11-19T13:18:39;17.80;;;4.13;;
11817;SDS011;5966;52.402;5.322;2023-11-19T13:21:14;13.63;;;3.43;;
11817;SDS011;5966;52.402;5.322;2023-11-19T13:23:52;12.40;;;3.53;;
11817;SDS011;5966;52.402;5.322;2023-11-19T13:26:21;19.60;;;4.33;;
11817;SDS011;5966;52.402;5.322;2023-11-19T13:29:01;20.40;;;3.90;;
11817;SDS011;5966;52.402;5.322;2023-11-19T13:31:29;16.43;;;5.10;;
11817;SDS011;5966;52.402;5.322;2023-11-19T13:33:59;19.53;;;3.47;;
11817;SDS011;5966;52.402;5.322;2023-11-19T13:36:32;17.33;;;3.30;;
11817;SDS011;5966;52.402;5.322;2023-11-19T13:39:02;12.77;;;3.63;;
11817;SDS011;5966;52.402;5.322;2023-11-19T13:41:31;21.07;;;4.00;;
11817;SDS011;5966;52.402;5.322;2023-11-19T13:43:59;20.13;;;4.27;;
11817;SDS011;5966;52.402;5.322;2023-11-19T13:46:28;16.27;;;4.17;;
11817;SDS011;5966;52.402;5.322;2023-11-19T13:48:56;23.57;;;4.17;;
11817;SDS011;5966;52.402;5.322;2023-11-19T13:51:25;18.80;;;3.43;;
11817;SDS011;5966;52.402;5.322;2023-11-19T13:53:55;20.40;;;3.90;;
11817;SDS011;5966;52.402;5.322;2023-11-19T13:56:24;24.40;;;4.63;;
11817;SDS011;5966;52.402;5.322;2023-11-19T13:58:53;22.77;;;4.47;;
11817;SDS011;5966;52.402;5.322;2023-11-19T14:01:21;15.37;;;4.53;;
11817;SDS011;5966;52.402;5.322;2023-11-19T14:03:52;18.70;;;4.20;;
11817;SDS011;5966;52.402;5.322;2023-11-19T14:06:21;19.73;;;4.57;;
11817;SDS011;5966;52.402;5.322;2023-11-19T14:08:50;17.13;;;3.77;;
11817;SDS011;5966;52.402;5.322;2023-11-19T14:11:20;18.17;;;4.00;;
11817;SDS011;5966;52.402;5.322;2023-11-19T14:13:51;18.50;;;3.97;;
11817;SDS011;5966;52.402;5.322;2023-11-19T14:16:20;18.20;;;3.67;;
11817;SDS011;5966;52.402;5.322;2023-11-19T14:18:49;19.67;;;4.67;;
11817;SDS011;5966;52.402;5.322;2023-11-19T14:21:17;21.47;;;4.17;;
11817;SDS011;5966;52.402;5.322;2023-11-19T14:23:46;16.90;;;4.23;;
11817;SDS011;5966;52.402;5.322;2023-11-19T14:26:18;17.57;;;3.90;;
11817;SDS011;5966;52.402;5.322;2023-11-19T14:31:43;17.27;;;4.03;;
11817;SDS011;5966;52.402;5.322;2023-11-19T14:34:41;15.27;;;3.67;;
11817;SDS011;5966;52.402;5.322;2023-11-19T14:37:10;18.00;;;4.07;;
11817;SDS011;5966;52.402;5.322;2023-11-19T14:39:39;19.40;;;3.90;;
11817;SDS011;5966;52.402;5.322;2023-11-19T14:49:32;22.20;;;3.83;;
11817;SDS011;5966;52.402;5.322;2023-11-19T14:52:14;16.30;;;3.77;;
11817;SDS011;5966;52.402;5.322;2023-11-19T14:54:47;21.13;;;4.37;;
11817;SDS011;5966;52.402;5.322;2023-11-19T14:57:17;20.60;;;4.50;;
11817;SDS011;5966;52.402;5.322;2023-11-19T14:59:46;18.20;;;4.20;;
11817;SDS011;5966;52.402;5.322;2023-11-19T15:02:15;21.30;;;4.63;;
11817;SDS011;5966;52.402;5.322;2023-11-19T15:04:44;21.57;;;4.67;;
11817;SDS011;5966;52.402;5.322;2023-11-19T15:07:12;20.63;;;4.80;;
11817;SDS011;5966;52.402;5.322;2023-11-19T15:09:40;18.87;;;4.83;;
11817;SDS011;5966;52.402;5.322;2023-11-19T15:12:08;19.80;;;4.63;;
11817;SDS011;5966;52.402;5.322;2023-11-19T15:14:37;21.37;;;4.27;;
11817;SDS011;5966;52.402;5.322;2023-11-19T15:17:05;20.70;;;4.53;;
11817;SDS011;5966;52.402;5.322;2023-11-19T15:19:36;20.00;;;5.23;;
11817;SDS011;5966;52.402;5.322;2023-11-19T15:22:05;17.00;;;4.57;;
11817;SDS011;5966;52.402;5.322;2023-11-19T15:24:33;18.70;;;4.17;;